createdAt,value
2022-12-05T00:00:15.930Z,82.12
2022-12-05T00:01:16.091Z,81.28
2022-12-05T00:02:15.979Z,81.29
2022-12-05T00:03:15.931Z,81.19
2022-12-05T00:04:15.978Z,80.82
2022-12-05T00:05:15.905Z,80.77
2022-12-05T00:06:15.950Z,80.7
2022-12-05T00:07:15.930Z,80.83
2022-12-05T00:08:16.031Z,80.25
2022-12-05T00:09:15.926Z,80.11
2022-12-05T00:10:15.922Z,80.11
2022-12-05T00:11:15.936Z,80.6
2022-12-05T00:12:15.912Z,80.6
2022-12-05T00:13:15.912Z,81.24
2022-12-05T00:14:15.935Z,81.32
2022-12-05T00:15:15.909Z,81.32
2022-12-05T00:16:16.040Z,81.32
2022-12-05T00:17:15.908Z,79.3
2022-12-05T00:18:15.913Z,79.46
2022-12-05T00:19:15.968Z,79.31
2022-12-05T00:20:15.909Z,79.4
2022-12-05T00:21:15.943Z,79.86
2022-12-05T00:22:15.912Z,80.08
2022-12-05T00:23:15.913Z,80.93
2022-12-05T00:24:15.913Z,81.06
2022-12-05T00:25:15.907Z,80.56
2022-12-05T00:26:15.924Z,80.62
2022-12-05T00:27:15.903Z,80.8
2022-12-05T00:28:15.908Z,80.86
2022-12-05T00:29:15.929Z,81.14
2022-12-05T00:30:15.918Z,81.14
2022-12-05T00:31:15.982Z,80.76
2022-12-05T00:32:15.977Z,80.17
2022-12-05T00:33:15.909Z,80.11
2022-12-05T00:34:15.902Z,80.01
2022-12-05T00:35:15.914Z,79.92
2022-12-05T00:36:15.937Z,79.9
2022-12-05T00:37:15.914Z,80.3
2022-12-05T00:38:15.914Z,79.99
2022-12-05T00:39:15.937Z,80.59
2022-12-05T00:40:15.913Z,81.29
2022-12-05T00:41:15.951Z,80.85
2022-12-05T00:42:15.934Z,80.3
2022-12-05T00:43:15.931Z,81.23
2022-12-05T00:44:15.935Z,81.12
2022-12-05T00:45:15.920Z,81.8
2022-12-05T00:46:16.041Z,81.45
2022-12-05T00:47:15.925Z,81.45
2022-12-05T00:48:15.938Z,80.87
2022-12-05T00:49:15.925Z,80.16
2022-12-05T00:50:15.909Z,79.98
2022-12-05T00:51:15.940Z,80.24
2022-12-05T00:52:15.933Z,80.79
2022-12-05T00:53:15.950Z,92.45
2022-12-05T00:54:15.926Z,81.58
2022-12-05T00:55:15.919Z,81.99
2022-12-05T00:56:15.996Z,81.77
2022-12-05T00:57:15.916Z,81.13
2022-12-05T00:58:15.920Z,80.7
2022-12-05T00:59:15.935Z,81.02
2022-12-05T01:00:15.929Z,81.02
2022-12-05T01:01:16.049Z,81.79
2022-12-05T01:02:15.911Z,81.55
2022-12-05T01:03:15.947Z,81.61
2022-12-05T01:04:15.931Z,81.48
2022-12-05T01:05:15.915Z,81.26
2022-12-05T01:06:15.932Z,81.02
2022-12-05T01:07:15.935Z,80.85
2022-12-05T01:08:15.993Z,81.03
2022-12-05T01:09:15.928Z,80.96
2022-12-05T01:10:15.927Z,81.22
2022-12-05T01:11:15.940Z,81.62
2022-12-05T01:12:15.932Z,81.89
2022-12-05T01:13:15.925Z,81.96
2022-12-05T01:14:15.948Z,81.57
2022-12-05T01:15:15.927Z,81.23
2022-12-05T01:16:16.058Z,80.46
2022-12-05T01:17:15.927Z,81.16
2022-12-05T01:18:15.915Z,81.35
2022-12-05T01:19:15.926Z,81.88
2022-12-05T01:20:15.921Z,81.41
2022-12-05T01:21:15.943Z,81.32
2022-12-05T01:22:15.920Z,81.42
2022-12-05T01:23:15.907Z,81.42
2022-12-05T01:24:15.930Z,80.6
2022-12-05T01:25:15.909Z,80.6
2022-12-05T01:26:15.917Z,81.04
2022-12-05T01:27:15.910Z,81.3
2022-12-05T01:28:15.913Z,82.04
2022-12-05T01:29:16.025Z,81.33
2022-12-05T01:30:15.943Z,82.08
2022-12-05T01:31:16.049Z,80.93
2022-12-05T01:32:16.003Z,80.82
2022-12-05T01:33:15.944Z,80.61
2022-12-05T01:34:15.926Z,80.79
2022-12-05T01:35:15.922Z,81.43
2022-12-05T01:36:15.930Z,81.9
2022-12-05T01:37:15.933Z,81.54
2022-12-05T01:38:15.908Z,81.82
2022-12-05T01:39:15.904Z,81.48
2022-12-05T01:40:15.910Z,81.48
2022-12-05T01:41:15.924Z,81.61
2022-12-05T01:42:15.903Z,81.61
2022-12-05T01:43:15.913Z,81.4
2022-12-05T01:44:15.929Z,81.24
2022-12-05T01:45:15.907Z,82.01
2022-12-05T01:46:15.997Z,81.37
2022-12-05T01:47:15.927Z,80.99
2022-12-05T01:48:15.924Z,80.99
2022-12-05T01:49:15.915Z,80.42
2022-12-05T01:50:15.939Z,80.8
2022-12-05T01:51:15.939Z,80.74
2022-12-05T01:52:15.923Z,80.5
2022-12-05T01:53:15.927Z,80.2
2022-12-05T01:54:15.925Z,80.72
2022-12-05T01:55:15.928Z,80.72
2022-12-05T01:56:15.934Z,81.4
2022-12-05T01:57:15.935Z,81.37
2022-12-05T01:58:15.909Z,81.49
2022-12-05T01:59:15.963Z,93.86
2022-12-05T02:00:15.971Z,93.86
2022-12-05T02:01:16.045Z,81.59
2022-12-05T02:02:16.033Z,81.35
2022-12-05T02:03:15.999Z,81.24
2022-12-05T02:04:15.927Z,81.03
2022-12-05T02:05:15.934Z,80.89
2022-12-05T02:06:15.941Z,80.62
2022-12-05T02:07:15.929Z,80.28
2022-12-05T02:08:16.023Z,80.62
2022-12-05T02:09:15.922Z,80.73
2022-12-05T02:10:15.918Z,80.55
2022-12-05T02:11:15.944Z,80.71
2022-12-05T02:12:15.923Z,80.71
2022-12-05T02:13:15.918Z,80.26
2022-12-05T02:14:15.931Z,80.83
2022-12-05T02:15:15.929Z,81.23
2022-12-05T02:16:15.995Z,81.09
2022-12-05T02:17:15.923Z,80.96
2022-12-05T02:18:15.931Z,80.72
2022-12-05T02:19:15.918Z,80.44
2022-12-05T02:20:15.930Z,80.56
2022-12-05T02:21:15.939Z,80.42
2022-12-05T02:22:15.933Z,80.3
2022-12-05T02:23:15.922Z,80.34
2022-12-05T02:24:15.922Z,80.6
2022-12-05T02:25:15.911Z,80.97
2022-12-05T02:26:15.932Z,80.91
2022-12-05T02:27:15.924Z,81.03
2022-12-05T02:28:15.929Z,80.57
2022-12-05T02:29:15.941Z,80.47
2022-12-05T02:30:15.930Z,80.47
2022-12-05T02:31:16.020Z,80.26
2022-12-05T02:32:15.921Z,80.74
2022-12-05T02:33:15.931Z,80.74
2022-12-05T02:34:15.902Z,81.08
2022-12-05T02:35:15.915Z,81.21
2022-12-05T02:36:15.962Z,81.26
2022-12-05T02:37:15.909Z,81.26
2022-12-05T02:38:15.909Z,81.4
2022-12-05T02:39:15.914Z,82.17
2022-12-05T02:40:15.903Z,82.07
2022-12-05T02:41:15.924Z,82.13
2022-12-05T02:42:15.914Z,81.56
2022-12-05T02:43:15.936Z,81.51
2022-12-05T02:44:15.913Z,81.62
2022-12-05T02:45:15.908Z,81.28
2022-12-05T02:46:16.003Z,80.97
2022-12-05T02:47:15.903Z,80.9
2022-12-05T02:48:15.904Z,81.35
2022-12-05T02:49:15.898Z,81.37
2022-12-05T02:50:15.905Z,81.19
2022-12-05T02:51:15.932Z,81.22
2022-12-05T02:52:15.908Z,81.62
2022-12-05T02:53:15.911Z,93.32
2022-12-05T02:54:15.910Z,81.21
2022-12-05T02:55:15.908Z,80.8
2022-12-05T02:56:15.932Z,81.17
2022-12-05T02:57:15.904Z,81.41
2022-12-05T02:58:15.908Z,81.66
2022-12-05T02:59:21.449Z,81.26
2022-12-05T03:00:15.946Z,81.26
2022-12-05T03:01:15.972Z,80.57
2022-12-05T03:02:15.923Z,81.38
2022-12-05T03:03:15.923Z,81.64
2022-12-05T03:04:15.975Z,82.16
2022-12-05T03:05:15.920Z,81.7
2022-12-05T03:06:15.934Z,83.08
2022-12-05T03:07:15.920Z,82.52
2022-12-05T03:08:15.994Z,82.11
2022-12-05T03:09:15.918Z,81.78
2022-12-05T03:10:15.924Z,81.57
2022-12-05T03:11:15.938Z,81.29
2022-12-05T03:12:15.913Z,81.82
2022-12-05T03:13:15.914Z,82.54
2022-12-05T03:14:15.935Z,82.84
2022-12-05T03:15:15.915Z,82.33
2022-12-05T03:16:16.001Z,82.03
2022-12-05T03:17:15.980Z,82.5
2022-12-05T03:18:15.918Z,81.97
2022-12-05T03:19:15.920Z,82.32
2022-12-05T03:20:15.903Z,83.32
2022-12-05T03:21:15.931Z,83.9
2022-12-05T03:22:15.920Z,84.36
2022-12-05T03:23:15.967Z,84.41
2022-12-05T03:24:15.923Z,84.41
2022-12-05T03:25:15.915Z,84.08
2022-12-05T03:26:15.929Z,83.47
2022-12-05T03:27:15.921Z,83.87
2022-12-05T03:28:15.923Z,83.88
2022-12-05T03:29:15.930Z,83.63
2022-12-05T03:30:15.931Z,83.63
2022-12-05T03:31:16.005Z,85.1
2022-12-05T03:32:15.921Z,84.7
2022-12-05T03:33:15.914Z,84.56
2022-12-05T03:34:15.897Z,84.73
2022-12-05T03:35:15.926Z,84.86
2022-12-05T03:36:15.938Z,84.76
2022-12-05T03:37:15.921Z,84.97
2022-12-05T03:38:15.931Z,84.91
2022-12-05T03:39:15.921Z,85.19
2022-12-05T03:40:15.919Z,84.66
2022-12-05T03:41:15.933Z,84.54
2022-12-05T03:42:15.919Z,84.45
2022-12-05T03:43:15.940Z,84.53
2022-12-05T03:44:15.921Z,84.53
2022-12-05T03:45:15.907Z,84.27
2022-12-05T03:46:16.024Z,84.27
2022-12-05T03:47:15.905Z,84.17
2022-12-05T03:48:15.907Z,84.9
2022-12-05T03:49:15.896Z,85.41
2022-12-05T03:50:15.896Z,85.26
2022-12-05T03:51:15.912Z,85.05
2022-12-05T03:52:15.901Z,85.6
2022-12-05T03:53:20.474Z,85.27
2022-12-05T03:54:16.006Z,85.42
2022-12-05T03:55:15.904Z,85.68
2022-12-05T03:56:15.914Z,85.28
2022-12-05T03:57:15.897Z,85.24
2022-12-05T03:58:15.907Z,85.36
2022-12-05T03:59:15.941Z,85.31
2022-12-05T04:00:15.918Z,85.31
2022-12-05T04:01:15.961Z,85.88
2022-12-05T04:02:15.896Z,85.67
2022-12-05T04:03:15.957Z,85.59
2022-12-05T04:04:15.898Z,85.12
2022-12-05T04:05:15.897Z,84.69
2022-12-05T04:06:15.911Z,84.83
2022-12-05T04:07:15.905Z,84.99
2022-12-05T04:08:15.973Z,84.99
2022-12-05T04:09:17.544Z,85.25
2022-12-05T04:10:15.910Z,85.51
2022-12-05T04:11:15.937Z,85.97
2022-12-05T04:12:15.926Z,85.93
2022-12-05T04:13:15.919Z,85.7
2022-12-05T04:14:15.935Z,85.42
2022-12-05T04:15:15.902Z,85.62
2022-12-05T04:16:16.003Z,85.3
2022-12-05T04:17:15.920Z,85.41
2022-12-05T04:18:15.913Z,85.58
2022-12-05T04:19:15.917Z,85.62
2022-12-05T04:20:15.924Z,86
2022-12-05T04:21:15.935Z,86.53
2022-12-05T04:22:15.912Z,86.48
2022-12-05T04:23:15.915Z,86.37
2022-12-05T04:24:15.917Z,86.13
2022-12-05T04:25:15.917Z,85.6
2022-12-05T04:26:15.932Z,85.2
2022-12-05T04:27:15.913Z,85.81
2022-12-05T04:28:21.136Z,86.11
2022-12-05T04:29:15.930Z,86.3
2022-12-05T04:30:15.917Z,86.3
2022-12-05T04:31:16.097Z,87.55
2022-12-05T04:32:15.919Z,88.25
2022-12-05T04:33:15.904Z,88.25
2022-12-05T04:34:15.919Z,88.04
2022-12-05T04:35:15.911Z,88.04
2022-12-05T04:36:15.930Z,87.57
2022-12-05T04:37:15.916Z,87.38
2022-12-05T04:38:15.921Z,87.7
2022-12-05T04:39:18.210Z,87.36
2022-12-05T04:40:15.911Z,87.4
2022-12-05T04:41:15.934Z,87.44
2022-12-05T04:42:15.922Z,88.22
2022-12-05T04:43:15.898Z,87.79
2022-12-05T04:44:15.945Z,87.63
2022-12-05T04:45:15.912Z,87.36
2022-12-05T04:46:15.979Z,87.42
2022-12-05T04:47:15.916Z,87.76
2022-12-05T04:48:15.924Z,87.9
2022-12-05T04:49:15.913Z,87.92
2022-12-05T04:50:15.919Z,87.64
2022-12-05T04:51:15.929Z,86.78
2022-12-05T04:52:15.919Z,86.61
2022-12-05T04:53:15.921Z,86.99
2022-12-05T04:54:15.905Z,86.99
2022-12-05T04:55:15.920Z,86.76
2022-12-05T04:56:15.935Z,86.3
2022-12-05T04:57:15.909Z,86.33
2022-12-05T04:58:15.896Z,85.95
2022-12-05T04:59:15.919Z,85.64
2022-12-05T05:00:15.916Z,85.79
2022-12-05T05:01:15.970Z,85.85
2022-12-05T05:02:15.896Z,85.96
2022-12-05T05:03:15.976Z,86.02
2022-12-05T05:04:15.899Z,86.56
2022-12-05T05:05:15.895Z,87.06
2022-12-05T05:06:15.916Z,86.6
2022-12-05T05:07:15.936Z,86.31
2022-12-05T05:08:15.953Z,86.1
2022-12-05T05:09:15.907Z,85.97
2022-12-05T05:10:15.924Z,85.97
2022-12-05T05:11:15.937Z,87.23
2022-12-05T05:12:18.945Z,87.42
2022-12-05T05:13:15.906Z,87.1
2022-12-05T05:14:15.917Z,87.34
2022-12-05T05:15:15.973Z,87.33
2022-12-05T05:16:15.974Z,86.99
2022-12-05T05:17:15.897Z,86.65
2022-12-05T05:18:15.906Z,86.2
2022-12-05T05:19:15.915Z,86.02
2022-12-05T05:20:19.806Z,86.02
2022-12-05T05:21:15.928Z,86.32
2022-12-05T05:22:15.928Z,86.32
2022-12-05T05:23:15.921Z,86.03
2022-12-05T05:24:15.916Z,85.43
2022-12-05T05:25:15.902Z,85.49
2022-12-05T05:26:15.940Z,85.42
2022-12-05T05:27:15.909Z,85.44
2022-12-05T05:28:15.911Z,85.33
2022-12-05T05:29:15.930Z,85.53
2022-12-05T05:30:15.937Z,85.53
2022-12-05T05:31:15.986Z,86.23
2022-12-05T05:32:15.927Z,86.19
2022-12-05T05:33:15.928Z,86.77
2022-12-05T05:34:15.930Z,86.88
2022-12-05T05:35:15.921Z,86.83
2022-12-05T05:36:15.929Z,86.73
2022-12-05T05:37:15.944Z,86.69
2022-12-05T05:38:15.902Z,86.7
2022-12-05T05:39:15.911Z,86.45
2022-12-05T05:40:15.924Z,86.45
2022-12-05T05:41:15.933Z,86.56
2022-12-05T05:42:15.913Z,87.71
2022-12-05T05:43:15.923Z,86.76
2022-12-05T05:44:15.932Z,86.36
2022-12-05T05:45:15.922Z,86.53
2022-12-05T05:46:15.974Z,86.37
2022-12-05T05:47:15.918Z,86.68
2022-12-05T05:48:15.916Z,86.56
2022-12-05T05:49:15.918Z,86.56
2022-12-05T05:50:21.104Z,86.56
2022-12-05T05:51:15.933Z,85.61
2022-12-05T05:52:15.917Z,85.55
2022-12-05T05:53:15.897Z,85.87
2022-12-05T05:54:15.927Z,85.71
2022-12-05T05:55:15.924Z,85.96
2022-12-05T05:56:18.663Z,85.87
2022-12-05T05:57:20.208Z,85.6
2022-12-05T05:58:15.924Z,85.41
2022-12-05T05:59:15.938Z,85.62
2022-12-05T06:00:15.915Z,85.62
2022-12-05T06:01:15.931Z,84.84
2022-12-05T06:02:15.910Z,84.85
2022-12-05T06:03:16.021Z,84.8
2022-12-05T06:04:15.968Z,85.08
2022-12-05T06:05:15.904Z,85.09
2022-12-05T06:06:15.929Z,85.09
2022-12-05T06:07:15.899Z,84.63
2022-12-05T06:08:15.955Z,84.45
2022-12-05T06:09:15.900Z,85.21
2022-12-05T06:10:15.910Z,84.88
2022-12-05T06:11:20.187Z,84.62
2022-12-05T06:12:15.998Z,84.2
2022-12-05T06:13:15.905Z,84.14
2022-12-05T06:14:15.912Z,83.79
2022-12-05T06:15:15.917Z,83.69
2022-12-05T06:16:15.979Z,83.8
2022-12-05T06:17:15.924Z,83.11
2022-12-05T06:18:15.911Z,82.81
2022-12-05T06:19:15.904Z,83.81
2022-12-05T06:20:15.913Z,83.81
2022-12-05T06:21:16.333Z,84.34
2022-12-05T06:22:15.908Z,84.34
2022-12-05T06:23:15.902Z,83.77
2022-12-05T06:24:15.896Z,83.76
2022-12-05T06:25:15.900Z,83.76
2022-12-05T06:26:15.917Z,84.39
2022-12-05T06:27:15.899Z,84.62
2022-12-05T06:28:15.901Z,84.37
2022-12-05T06:29:15.924Z,84.44
2022-12-05T06:30:15.918Z,84.44
2022-12-05T06:31:16.000Z,84.61
2022-12-05T06:32:15.910Z,83.84
2022-12-05T06:33:15.939Z,83.89
2022-12-05T06:34:15.905Z,84.17
2022-12-05T06:35:15.917Z,83.98
2022-12-05T06:36:15.954Z,83.22
2022-12-05T06:37:15.916Z,83.22
2022-12-05T06:38:15.922Z,83.57
2022-12-05T06:39:15.926Z,83.57
2022-12-05T06:40:15.927Z,83.57
2022-12-05T06:41:15.934Z,83.92
2022-12-05T06:42:15.910Z,84.46
2022-12-05T06:43:15.915Z,84.19
2022-12-05T06:44:15.935Z,83.67
2022-12-05T06:45:15.917Z,83.32
2022-12-05T06:46:16.161Z,83.08
2022-12-05T06:47:15.917Z,83.72
2022-12-05T06:48:15.902Z,83.73
2022-12-05T06:49:15.911Z,83.81
2022-12-05T06:50:15.909Z,83.81
2022-12-05T06:51:15.924Z,83.42
2022-12-05T06:52:15.924Z,83.95
2022-12-05T06:53:15.912Z,84.36
2022-12-05T06:54:15.913Z,85.01
2022-12-05T06:55:15.917Z,85.05
2022-12-05T06:56:15.941Z,84.42
2022-12-05T06:57:15.913Z,84.17
2022-12-05T06:58:15.905Z,84.19
2022-12-05T06:59:15.937Z,84.36
2022-12-05T07:00:15.909Z,84.36
2022-12-05T07:01:16.181Z,85.34
2022-12-05T07:02:15.978Z,84.83
2022-12-05T07:03:15.920Z,84.96
2022-12-05T07:04:15.953Z,85.05
2022-12-05T07:05:15.921Z,85.09
2022-12-05T07:06:15.933Z,85.09
2022-12-05T07:07:15.916Z,85.34
2022-12-05T07:08:15.960Z,85.06
2022-12-05T07:09:15.920Z,84.56
2022-12-05T07:10:15.910Z,84.56
2022-12-05T07:11:15.935Z,83.58
2022-12-05T07:12:15.920Z,83.05
2022-12-05T07:13:15.982Z,83.03
2022-12-05T07:14:38.821Z,82.78
2022-12-05T07:15:15.933Z,82.42
2022-12-05T07:16:16.005Z,84
2022-12-05T07:17:15.922Z,84
2022-12-05T07:18:15.908Z,83.93
2022-12-05T07:19:15.920Z,83.22
2022-12-05T07:20:15.899Z,83.08
2022-12-05T07:21:16.003Z,83.92
2022-12-05T07:22:16.386Z,84.48
2022-12-05T07:23:15.961Z,84.67
2022-12-05T07:24:15.903Z,84
2022-12-05T07:25:15.907Z,83.07
2022-12-05T07:26:15.945Z,82.53
2022-12-05T07:27:15.907Z,82.4
2022-12-05T07:28:15.913Z,82.88
2022-12-05T07:29:15.925Z,83.12
2022-12-05T07:30:15.931Z,83.12
2022-12-05T07:31:15.981Z,82.64
2022-12-05T07:32:15.978Z,82.76
2022-12-05T07:33:15.980Z,82.74
2022-12-05T07:34:15.899Z,82.36
2022-12-05T07:35:15.902Z,82.37
2022-12-05T07:36:15.928Z,83.42
2022-12-05T07:37:15.911Z,84.22
2022-12-05T07:38:15.920Z,84.13
2022-12-05T07:39:15.914Z,83.76
2022-12-05T07:40:15.924Z,83.76
2022-12-05T07:41:15.937Z,82.34
2022-12-05T07:42:15.905Z,82.9
2022-12-05T07:43:15.914Z,83.46
2022-12-05T07:44:15.924Z,84.31
2022-12-05T07:45:15.913Z,84.04
2022-12-05T07:46:15.990Z,83.52
2022-12-05T07:47:15.983Z,83.1
2022-12-05T07:48:18.789Z,82.45
2022-12-05T07:49:15.942Z,82.3
2022-12-05T07:50:15.902Z,82.3
2022-12-05T07:51:15.926Z,82.4
2022-12-05T07:52:15.925Z,82.46
2022-12-05T07:53:15.919Z,84.09
2022-12-05T07:54:15.917Z,83.99
2022-12-05T07:55:15.915Z,83.65
2022-12-05T07:56:15.930Z,83.73
2022-12-05T07:57:15.912Z,83.83
2022-12-05T07:58:15.909Z,83.47
2022-12-05T07:59:15.928Z,84.18
2022-12-05T08:00:15.945Z,84.18
2022-12-05T08:01:16.049Z,83.82
2022-12-05T08:02:15.986Z,84.33
2022-12-05T08:03:15.938Z,84.61
2022-12-05T08:04:16.074Z,84.74
2022-12-05T08:05:15.923Z,84.06
2022-12-05T08:06:15.933Z,83.73
2022-12-05T08:07:15.914Z,83.85
2022-12-05T08:08:16.072Z,83.45
2022-12-05T08:09:15.918Z,83.26
2022-12-05T08:10:15.912Z,83.26
2022-12-05T08:11:15.937Z,83.02
2022-12-05T08:12:15.976Z,83.2
2022-12-05T08:13:15.927Z,82.96
2022-12-05T08:14:15.934Z,83.31
2022-12-05T08:15:15.920Z,82.86
2022-12-05T08:16:15.973Z,82.83
2022-12-05T08:17:15.981Z,83.58
2022-12-05T08:18:15.923Z,84.37
2022-12-05T08:19:15.934Z,83.84
2022-12-05T08:20:15.917Z,83.84
2022-12-05T08:21:15.932Z,84.51
2022-12-05T08:22:15.911Z,83.82
2022-12-05T08:23:15.916Z,83.82
2022-12-05T08:24:15.897Z,84.8
2022-12-05T08:25:15.904Z,84.36
2022-12-05T08:26:15.939Z,84.36
2022-12-05T08:27:15.931Z,83.95
2022-12-05T08:28:15.916Z,83.42
2022-12-05T08:29:15.934Z,83.42
2022-12-05T08:30:15.910Z,83.46
2022-12-05T08:31:16.008Z,83.97
2022-12-05T08:32:15.916Z,83.38
2022-12-05T08:33:15.904Z,83.43
2022-12-05T08:34:15.897Z,82.57
2022-12-05T08:35:15.901Z,82.94
2022-12-05T08:36:15.918Z,82.85
2022-12-05T08:37:15.904Z,83.47
2022-12-05T08:38:15.899Z,83.9
2022-12-05T08:39:15.938Z,83.5
2022-12-05T08:40:15.925Z,83.67
2022-12-05T08:41:15.929Z,84.22
2022-12-05T08:42:15.917Z,84.06
2022-12-05T08:43:15.912Z,83.64
2022-12-05T08:44:15.920Z,83.03
2022-12-05T08:45:15.923Z,82.88
2022-12-05T08:46:16.009Z,83.38
2022-12-05T08:47:15.928Z,82.73
2022-12-05T08:48:15.928Z,82.45
2022-12-05T08:49:15.905Z,82.3
2022-12-05T08:50:15.937Z,82.3
2022-12-05T08:51:15.926Z,82.18
2022-12-05T08:52:15.919Z,82.47
2022-12-05T08:53:15.901Z,82.2
2022-12-05T08:54:15.914Z,82.92
2022-12-05T08:55:15.927Z,82.7
2022-12-05T08:56:15.938Z,82.66
2022-12-05T08:57:15.921Z,82.08
2022-12-05T08:58:15.916Z,81.74
2022-12-05T08:59:15.937Z,82.16
2022-12-05T09:00:15.915Z,82.16
2022-12-05T09:01:16.014Z,83.09
2022-12-05T09:02:16.005Z,83.56
2022-12-05T09:03:15.925Z,83.09
2022-12-05T09:04:15.917Z,83.25
2022-12-05T09:05:27.838Z,83.34
2022-12-05T09:06:15.925Z,83.39
2022-12-05T09:07:15.921Z,84.21
2022-12-05T09:08:15.982Z,83.72
2022-12-05T09:09:15.921Z,84.39
2022-12-05T09:10:15.921Z,84.39
2022-12-05T09:11:15.927Z,84.58
2022-12-05T09:12:15.914Z,84.09
2022-12-05T09:13:15.909Z,83.43
2022-12-05T09:14:15.943Z,82.73
2022-12-05T09:15:15.923Z,82.59
2022-12-05T09:16:15.984Z,83.23
2022-12-05T09:17:15.922Z,84.12
2022-12-05T09:18:15.925Z,83.61
2022-12-05T09:19:15.901Z,82.81
2022-12-05T09:20:15.916Z,82.81
2022-12-05T09:21:15.935Z,83.46
2022-12-05T09:22:15.920Z,83.74
2022-12-05T09:23:16.249Z,83.52
2022-12-05T09:24:15.914Z,83.5
2022-12-05T09:25:15.910Z,83.43
2022-12-05T09:26:15.935Z,83.15
2022-12-05T09:27:15.918Z,83.1
2022-12-05T09:28:15.916Z,82.62
2022-12-05T09:29:17.526Z,91.74
2022-12-05T09:30:15.916Z,91.74
2022-12-05T09:31:15.999Z,84.05
2022-12-05T09:32:15.922Z,83.97
2022-12-05T09:33:15.905Z,83.17
2022-12-05T09:34:15.926Z,83
2022-12-05T09:35:15.912Z,82.81
2022-12-05T09:36:15.931Z,82.23
2022-12-05T09:37:30.868Z,82.72
2022-12-05T09:38:15.913Z,83.4
2022-12-05T09:39:15.913Z,83.06
2022-12-05T09:40:15.933Z,83.06
2022-12-05T09:41:15.938Z,82.76
2022-12-05T09:42:15.906Z,82.32
2022-12-05T09:43:15.926Z,81.99
2022-12-05T09:44:15.916Z,81.56
2022-12-05T09:45:15.905Z,82.02
2022-12-05T09:46:15.975Z,82.52
2022-12-05T09:47:15.902Z,82.34
2022-12-05T09:48:15.901Z,82.09
2022-12-05T09:49:15.896Z,81.76
2022-12-05T09:50:15.916Z,82.59
2022-12-05T09:51:15.923Z,83.64
2022-12-05T09:52:15.908Z,83.14
2022-12-05T09:53:15.902Z,83.42
2022-12-05T09:54:15.905Z,82.92
2022-12-05T09:55:15.944Z,82.85
2022-12-05T09:56:15.917Z,82.97
2022-12-05T09:57:15.901Z,82.81
2022-12-05T09:58:15.944Z,82.81
2022-12-05T09:59:15.919Z,82.44
2022-12-05T10:00:15.909Z,82.44
2022-12-05T10:01:16.048Z,82.76
2022-12-05T10:02:15.945Z,82.6
2022-12-05T10:03:15.911Z,82.63
2022-12-05T10:04:16.011Z,82.41
2022-12-05T10:05:15.946Z,81.89
2022-12-05T10:06:15.936Z,81.42
2022-12-05T10:07:15.917Z,81.29
2022-12-05T10:08:15.996Z,81.29
2022-12-05T10:09:15.917Z,81.82
2022-12-05T10:10:20.208Z,81.82
2022-12-05T10:11:15.925Z,82.71
2022-12-05T10:12:15.912Z,82.64
2022-12-05T10:13:15.917Z,82.37
2022-12-05T10:14:15.911Z,82.37
2022-12-05T10:15:15.966Z,82.19
2022-12-05T10:16:15.948Z,82.19
2022-12-05T10:17:15.928Z,81.95
2022-12-05T10:18:15.928Z,81.63
2022-12-05T10:19:15.920Z,81.47
2022-12-05T10:20:15.911Z,81.47
2022-12-05T10:21:15.933Z,81.43
2022-12-05T10:22:20.501Z,81.19
2022-12-05T10:23:41.282Z,81.19
2022-12-05T10:24:15.911Z,81.11
2022-12-05T10:25:15.919Z,82.04
2022-12-05T10:26:15.940Z,81.86
2022-12-05T10:27:15.904Z,81.86
2022-12-05T10:28:15.916Z,81.89
2022-12-05T10:29:15.937Z,81.52
2022-12-05T10:30:15.924Z,81.52
2022-12-05T10:31:16.087Z,93.09
2022-12-05T10:32:15.900Z,93.09
2022-12-05T10:33:15.925Z,81.09
2022-12-05T10:34:15.919Z,81.39
2022-12-05T10:35:15.916Z,80.68
2022-12-05T10:36:15.934Z,80.68
2022-12-05T10:37:15.914Z,80.68
2022-12-05T10:38:15.918Z,80.73
2022-12-05T10:39:15.921Z,80.65
2022-12-05T10:40:15.922Z,80.65
2022-12-05T10:41:15.943Z,81.11
2022-12-05T10:42:15.923Z,82.17
2022-12-05T10:43:15.919Z,81.82
2022-12-05T10:44:15.929Z,82.04
2022-12-05T10:45:15.926Z,81.72
2022-12-05T10:46:17.435Z,81.41
2022-12-05T10:47:15.989Z,80.73
2022-12-05T10:48:15.904Z,81.23
2022-12-05T10:49:15.911Z,80.91
2022-12-05T10:50:15.900Z,80.91
2022-12-05T10:51:15.917Z,81.55
2022-12-05T10:52:15.906Z,81.21
2022-12-05T10:53:15.923Z,81.21
2022-12-05T10:54:15.905Z,81.29
2022-12-05T10:55:15.929Z,81.62
2022-12-05T10:56:30.167Z,81.66
2022-12-05T10:57:15.917Z,81.39
2022-12-05T10:58:17.534Z,81.91
2022-12-05T10:59:15.937Z,81.91
2022-12-05T11:00:15.911Z,81.88
2022-12-05T11:01:15.912Z,81.85
2022-12-05T11:02:15.985Z,81.97
2022-12-05T11:03:15.897Z,81.49
2022-12-05T11:04:15.903Z,81.97
2022-12-05T11:05:16.012Z,82.38
2022-12-05T11:06:15.913Z,81.83
2022-12-05T11:07:15.908Z,81.95
2022-12-05T11:08:15.964Z,81.95
2022-12-05T11:09:15.910Z,82.41
2022-12-05T11:10:15.917Z,82.41
2022-12-05T11:11:15.911Z,81.73
2022-12-05T11:12:15.905Z,81.21
2022-12-05T11:13:15.925Z,81.03
2022-12-05T11:14:15.915Z,80.87
2022-12-05T11:15:15.896Z,81.09
2022-12-05T11:16:15.940Z,82.03
2022-12-05T11:17:15.899Z,81.63
2022-12-05T11:18:15.923Z,80.98
2022-12-05T11:19:15.913Z,81.57
2022-12-05T11:20:15.941Z,81.57
2022-12-05T11:21:15.925Z,81.31
2022-12-05T11:22:15.905Z,82.07
2022-12-05T11:23:15.923Z,82.85
2022-12-05T11:24:15.925Z,82.8
2022-12-05T11:25:15.919Z,83.16
2022-12-05T11:26:15.938Z,83.21
2022-12-05T11:27:15.962Z,83.55
2022-12-05T11:28:15.927Z,82.82
2022-12-05T11:29:15.937Z,83.06
2022-12-05T11:30:15.917Z,83.06
2022-12-05T11:31:16.048Z,82.03
2022-12-05T11:32:15.915Z,81.2
2022-12-05T11:33:15.979Z,81.2
2022-12-05T11:34:15.915Z,81.11
2022-12-05T11:35:15.911Z,80.36
2022-12-05T11:36:15.951Z,79.76
2022-12-05T11:37:15.919Z,80.01
2022-12-05T11:38:15.929Z,79.33
2022-12-05T11:39:15.923Z,79.94
2022-12-05T11:40:15.924Z,79.94
2022-12-05T11:41:15.932Z,79.37
2022-12-05T11:42:15.919Z,79.6
2022-12-05T11:43:15.931Z,80.18
2022-12-05T11:44:15.926Z,79.77
2022-12-05T11:45:15.925Z,80.33
2022-12-05T11:46:15.967Z,79.88
2022-12-05T11:47:15.988Z,79.88
2022-12-05T11:48:15.915Z,80.22
2022-12-05T11:49:15.913Z,80.13
2022-12-05T11:50:15.916Z,80.13
2022-12-05T11:51:15.943Z,82.14
2022-12-05T11:52:15.917Z,81.89
2022-12-05T11:53:15.920Z,80.59
2022-12-05T11:54:15.912Z,79.77
2022-12-05T11:55:16.044Z,79.77
2022-12-05T11:56:15.926Z,78.64
2022-12-05T11:57:15.913Z,78.85
2022-12-05T11:58:15.914Z,78.56
2022-12-05T11:59:15.932Z,78.45
2022-12-05T12:00:15.913Z,78.45
2022-12-05T12:01:16.079Z,78.65
2022-12-05T12:02:15.989Z,78.02
2022-12-05T12:03:15.980Z,78.27
2022-12-05T12:04:15.926Z,78.91
2022-12-05T12:05:15.926Z,79.21
2022-12-05T12:06:15.928Z,79.42
2022-12-05T12:07:15.917Z,78.61
2022-12-05T12:08:16.074Z,78.61
2022-12-05T12:09:15.906Z,78.73
2022-12-05T12:10:15.911Z,78.86
2022-12-05T12:11:15.950Z,78.6
2022-12-05T12:12:15.907Z,79.8
2022-12-05T12:13:15.897Z,80.88
2022-12-05T12:14:15.927Z,81.29
2022-12-05T12:15:15.906Z,81.9
2022-12-05T12:16:15.990Z,81.48
2022-12-05T12:17:15.912Z,81.2
2022-12-05T12:18:15.908Z,80.17
2022-12-05T12:19:15.964Z,79.38
2022-12-05T12:20:15.912Z,79.38
2022-12-05T12:21:15.914Z,79.65
2022-12-05T12:22:15.900Z,79.76
2022-12-05T12:23:15.896Z,79.61
2022-12-05T12:24:15.907Z,79.83
2022-12-05T12:25:16.025Z,80.21
2022-12-05T12:26:15.924Z,80.1
2022-12-05T12:27:15.903Z,79.75
2022-12-05T12:28:15.908Z,79.13
2022-12-05T12:29:15.920Z,78.93
2022-12-05T12:30:15.965Z,78.93
2022-12-05T12:31:15.959Z,80.01
2022-12-05T12:32:16.042Z,80.8
2022-12-05T12:33:15.910Z,81.25
2022-12-05T12:34:15.900Z,81.38
2022-12-05T12:35:15.913Z,81.54
2022-12-05T12:36:15.930Z,81.88
2022-12-05T12:37:15.915Z,81
2022-12-05T12:38:15.914Z,80.94
2022-12-05T12:39:15.917Z,81.13
2022-12-05T12:40:15.944Z,81.13
2022-12-05T12:41:15.915Z,81.13
2022-12-05T12:42:15.906Z,80.37
2022-12-05T12:43:44.932Z,80.19
2022-12-05T12:44:15.938Z,80.51
2022-12-05T12:45:15.924Z,80.67
2022-12-05T12:46:15.984Z,81.03
2022-12-05T12:47:15.921Z,81.84
2022-12-05T12:48:15.926Z,80.93
2022-12-05T12:49:15.917Z,80.77
2022-12-05T12:50:15.986Z,80.77
2022-12-05T12:51:15.921Z,80.5
2022-12-05T12:52:15.932Z,80.31
2022-12-05T12:53:15.917Z,80.81
2022-12-05T12:54:25.237Z,80.81
2022-12-05T12:55:16.219Z,82.41